Time;durP1;ratioP1;P1;durP2;ratioP2;P2;SDS_P1;SDS_P2;PMS_P1;PMS_P2;Temp;Humidity;BMP_temperature;BMP_pressure;BME280_temperature;BME280_humidity;BME280_pressure;Samples;Min_cycle;Max_cycle;Signal;HPM_P1;HPM_P2
2022/08/29 00:00:28;;;;;;;6.05;3.40;;;20.40;99.90;;;;;;4263674;27;20613;-62
2022/08/29 00:02:29;;;;;;;5.10;3.25;;;20.30;99.90;;;;;;4264600;27;20043;-62
2022/08/29 00:04:30;;;;;;;5.57;3.10;;;20.40;99.90;;;;;;4263336;27;20064;-63
2022/08/29 00:06:31;;;;;;;5.93;2.75;;;20.40;99.90;;;;;;4264563;27;20440;-62
2022/08/29 00:08:33;;;;;;;3.97;2.95;;;20.40;99.90;;;;;;4263477;27;20019;-63
2022/08/29 00:10:36;;;;;;;7.53;3.05;;;20.40;99.90;;;;;;4264698;27;20072;-63
2022/08/29 00:12:37;;;;;;;4.10;3.20;;;20.40;99.90;;;;;;4263059;27;20027;-64
2022/08/29 00:14:38;;;;;;;5.20;2.90;;;20.40;99.90;;;;;;4264587;27;20087;-65
2022/08/29 00:16:39;;;;;;;3.28;2.90;;;20.50;99.90;;;;;;4263291;27;20115;-62
2022/08/29 00:18:41;;;;;;;4.20;2.92;;;20.50;99.90;;;;;;4263864;27;20099;-63
2022/08/29 00:20:43;;;;;;;9.45;3.63;;;20.50;99.90;;;;;;4263649;27;20031;-63
2022/08/29 00:22:44;;;;;;;7.18;3.17;;;20.50;99.90;;;;;;4263825;27;20532;-66
2022/08/29 00:24:45;;;;;;;4.97;2.95;;;20.50;99.90;;;;;;4263986;27;20042;-63
2022/08/29 00:26:46;;;;;;;7.93;3.53;;;20.40;99.90;;;;;;4263240;27;20103;-62
2022/08/29 00:28:47;;;;;;;3.60;3.25;;;20.40;99.90;;;;;;4263777;27;20395;-62
2022/08/29 00:30:49;;;;;;;5.45;2.60;;;20.30;99.90;;;;;;4263182;27;20030;-62
2022/08/29 00:32:51;;;;;;;5.57;2.72;;;20.30;99.90;;;;;;4264238;27;20027;-63
2022/08/29 00:34:52;;;;;;;8.70;3.80;;;20.20;99.90;;;;;;4262953;27;20034;-62
2022/08/29 00:36:53;;;;;;;4.47;3.33;;;20.20;99.90;;;;;;4264205;27;20031;-62
2022/08/29 00:38:54;;;;;;;8.25;3.58;;;20.10;99.90;;;;;;4263028;27;20031;-62
2022/08/29 00:40:57;;;;;;;8.00;3.15;;;20.10;99.90;;;;;;4264506;27;20022;-63
2022/08/29 00:42:59;;;;;;;7.10;3.47;;;20.10;99.90;;;;;;4262533;27;20054;-62
2022/08/29 00:45:02;;;;;;;4.63;2.85;;;20.10;99.90;;;;;;4264165;27;20352;-62
2022/08/29 00:47:08;;;;;;;7.38;3.08;;;20.10;99.90;;;;;;4262776;27;20038;-63
2022/08/29 00:49:29;;;;;;;3.70;2.70;;;20.10;99.90;;;;;;4263357;27;20035;-64
2022/08/29 00:51:31;;;;;;;7.68;3.30;;;20.10;99.90;;;;;;4262747;27;20030;-64
2022/08/29 00:53:41;;;;;;;7.20;3.10;;;20.00;99.90;;;;;;4263888;27;20470;-65
2022/08/29 00:55:44;;;;;;;;;;;19.90;99.90;;;;;;4263348;27;20367;-66
2022/08/29 00:57:49;;;;;;;5.57;3.15;;;19.90;99.90;;;;;;4261292;27;19911;-63
2022/08/29 00:59:51;;;;;;;7.68;3.42;;;19.90;99.90;;;;;;4263016;27;20014;-62
2022/08/29 01:01:52;;;;;;;5.80;3.30;;;19.90;99.90;;;;;;4263361;27;20035;-64
2022/08/29 01:03:53;;;;;;;5.80;3.08;;;19.80;99.90;;;;;;4263198;27;20473;-64
2022/08/29 01:05:54;;;;;;;4.80;2.78;;;19.80;99.90;;;;;;4262782;27;20019;-64
2022/08/29 01:07:56;;;;;;;6.20;3.53;;;19.80;99.90;;;;;;4263408;27;20015;-64
2022/08/29 01:09:57;;;;;;;5.25;3.20;;;19.70;99.90;;;;;;4261977;27;20095;-66
2022/08/29 01:12:16;;;;;;;8.02;3.75;;;19.70;99.90;;;;;;4263512;27;20027;-63
2022/08/29 01:14:19;;;;;;;3.78;3.05;;;19.70;99.90;;;;;;4262628;27;20087;-63
2022/08/29 01:16:21;;;;;;;6.43;3.72;;;19.70;99.90;;;;;;4263145;27;20030;-63
2022/08/29 01:18:25;;;;;;;6.60;3.15;;;19.70;99.90;;;;;;4262313;27;20371;-64
2022/08/29 01:21:07;;;;;;;3.50;3.00;;;19.70;99.90;;;;;;4263333;27;20082;-63
2022/08/29 01:23:32;;;;;;;3.83;3.22;;;19.60;99.90;;;;;;4262524;27;20038;-63
2022/08/29 01:25:38;;;;;;;9.27;4.20;;;19.60;99.90;;;;;;4262675;27;20071;-63
2022/08/29 01:27:42;;;;;;;6.70;3.55;;;19.60;99.90;;;;;;4262647;27;20412;-62
2022/08/29 01:29:44;;;;;;;4.47;3.08;;;19.50;99.90;;;;;;4262429;27;20364;-62
2022/08/29 01:31:47;;;;;;;9.18;3.65;;;19.50;99.90;;;;;;4261764;27;20544;-62
2022/08/29 01:33:57;;;;;;;5.82;3.17;;;19.40;99.90;;;;;;4262631;27;20075;-61
2022/08/29 01:35:58;;;;;;;8.82;3.63;;;19.40;99.90;;;;;;4262136;27;20015;-62
2022/08/29 01:37:59;;;;;;;6.90;3.88;;;19.40;99.90;;;;;;4262995;27;20095;-62
2022/08/29 01:40:00;;;;;;;8.75;3.67;;;19.30;99.90;;;;;;4261932;27;20154;-62
2022/08/29 01:42:09;;;;;;;10.23;3.70;;;19.20;99.90;;;;;;4262940;27;20087;-62
2022/08/29 01:44:18;;;;;;;5.57;3.42;;;19.20;99.90;;;;;;4261969;27;20443;-62
2022/08/29 01:46:28;;;;;;;3.38;3.08;;;19.20;99.90;;;;;;4262143;27;20551;-63
2022/08/29 01:48:29;;;;;;;10.10;3.80;;;19.10;99.90;;;;;;4261547;27;20095;-63
2022/08/29 01:50:31;;;;;;;7.28;3.80;;;19.10;99.90;;;;;;4262548;27;20087;-62
2022/08/29 01:52:33;;;;;;;4.25;3.58;;;19.00;99.90;;;;;;4261393;27;20095;-63
2022/08/29 01:54:35;;;;;;;5.85;3.33;;;19.00;99.90;;;;;;4262204;27;20039;-63
2022/08/29 01:56:40;;;;;;;4.57;3.58;;;19.00;99.90;;;;;;4261792;27;20095;-63
2022/08/29 01:58:43;;;;;;;7.95;3.63;;;19.00;99.90;;;;;;4262858;27;20071;-62
2022/08/29 02:00:44;;;;;;;4.63;3.58;;;19.00;99.90;;;;;;4261667;27;20095;-61
2022/08/29 02:02:45;;;;;;;5.68;3.67;;;19.00;99.90;;;;;;4262620;27;20087;-63
2022/08/29 02:04:47;;;;;;;5.85;3.80;;;19.00;99.90;;;;;;4261583;27;20035;-62
2022/08/29 02:06:49;;;;;;;8.20;4.50;;;18.90;99.90;;;;;;4262336;27;20055;-62
2022/08/29 02:08:50;;;;;;;5.55;3.22;;;19.00;99.90;;;;;;4262003;27;20636;-62
2022/08/29 02:10:51;;;;;;;8.65;4.22;;;18.90;99.90;;;;;;4261736;27;20034;-63
2022/08/29 02:12:52;;;;;;;7.60;3.67;;;18.90;99.90;;;;;;4262268;27;20027;-62
2022/08/29 02:14:54;;;;;;;5.00;3.50;;;18.90;99.90;;;;;;4261578;27;20022;-62
2022/08/29 02:16:55;;;;;;;7.57;4.18;;;18.90;99.90;;;;;;4262058;27;20453;-62
2022/08/29 02:18:58;;;;;;;6.97;4.18;;;18.90;99.90;;;;;;4260157;27;20031;-62
2022/08/29 02:21:00;;;;;;;10.52;4.18;;;18.90;99.90;;;;;;4262503;27;20031;-62
2022/08/29 02:23:01;;;;;;;5.20;3.88;;;18.90;99.90;;;;;;4261310;27;20071;-62
2022/08/29 02:25:40;;;;;;;5.55;3.60;;;18.90;99.90;;;;;;4261125;27;20111;-63
2022/08/29 02:27:26;;;;;;;8.73;3.83;;;18.80;99.90;;;;;;4261222;27;20106;-61
2022/08/29 02:29:28;;;;;;;6.50;3.85;;;18.80;99.90;;;;;;4262283;27;20043;-62
2022/08/29 02:31:29;;;;;;;6.35;4.40;;;18.70;99.90;;;;;;4260886;27;20039;-62
2022/08/29 02:33:31;;;;;;;6.70;4.22;;;18.70;99.90;;;;;;4262436;27;20078;-62
2022/08/29 02:35:33;;;;;;;5.32;4.18;;;18.70;99.90;;;;;;4261123;27;20083;-61
2022/08/29 02:37:34;;;;;;;4.68;3.60;;;18.70;99.90;;;;;;4262354;27;20068;-61
2022/08/29 02:39:36;;;;;;;5.70;3.90;;;18.60;99.90;;;;;;4261383;27;20031;-62
2022/08/29 02:41:37;;;;;;;5.32;4.43;;;18.60;99.90;;;;;;4261783;27;20035;-62
2022/08/29 02:43:39;;;;;;;7.95;3.97;;;18.60;99.90;;;;;;4261441;27;20031;-62
2022/08/29 02:45:41;;;;;;;7.20;3.92;;;18.60;99.90;;;;;;4261772;27;20050;-64
2022/08/29 02:47:42;;;;;;;4.78;3.88;;;18.60;99.90;;;;;;4261879;27;20786;-62
2022/08/29 02:49:44;;;;;;;7.90;4.55;;;18.50;99.90;;;;;;4261394;27;20072;-63
2022/08/29 02:51:45;;;;;;;8.57;4.38;;;18.50;99.90;;;;;;4261564;27;20035;-62
2022/08/29 02:53:46;;;;;;;9.38;4.28;;;18.50;99.90;;;;;;4261093;27;20515;-62
2022/08/29 02:55:50;;;;;;;6.03;4.38;;;18.40;99.90;;;;;;4262248;27;20466;-61
2022/08/29 02:57:53;;;;;;;8.65;4.88;;;18.40;99.90;;;;;;4262776;27;20027;-61
2022/08/29 02:59:54;;;;;;;8.40;3.92;;;18.30;99.90;;;;;;4265176;27;20042;-61
2022/08/29 03:01:55;;;;;;;8.20;4.35;;;18.30;99.90;;;;;;4264474;27;20546;-62
2022/08/29 03:03:56;;;;;;;6.15;4.72;;;18.30;99.90;;;;;;4265585;27;20011;-61
2022/08/29 03:05:57;;;;;;;7.25;4.85;;;18.30;99.90;;;;;;4264340;27;20065;-61
2022/08/29 03:07:59;;;;;;;6.82;4.38;;;18.20;99.90;;;;;;4265403;27;20038;-62
2022/08/29 03:10:01;;;;;;;7.40;4.40;;;18.20;99.90;;;;;;4264416;27;20470;-65
2022/08/29 03:12:03;;;;;;;8.45;4.43;;;18.20;99.90;;;;;;4265026;27;20083;-61
2022/08/29 03:14:04;;;;;;;7.50;4.75;;;18.20;99.90;;;;;;4262461;27;20478;-62
2022/08/29 03:16:05;;;;;;;7.68;4.65;;;18.20;99.90;;;;;;4263480;27;20034;-61
2022/08/29 03:18:07;;;;;;;8.02;4.72;;;18.20;99.90;;;;;;4263739;27;20107;-61
2022/08/29 03:20:10;;;;;;;11.68;4.72;;;18.20;99.90;;;;;;4264296;27;20092;-63
2022/08/29 03:22:11;;;;;;;8.75;4.20;;;18.30;99.90;;;;;;4264791;27;20043;-62
2022/08/29 03:24:12;;;;;;;8.90;4.50;;;18.30;99.90;;;;;;4264395;27;20471;-62
2022/08/29 03:26:14;;;;;;;5.65;4.10;;;18.30;99.90;;;;;;4264518;27;20523;-63
2022/08/29 03:28:16;;;;;;;8.00;4.22;;;18.30;99.90;;;;;;4263980;27;20582;-62
2022/08/29 03:30:18;;;;;;;8.30;4.90;;;18.20;99.90;;;;;;4265169;27;20022;-63
2022/08/29 03:32:19;;;;;;;11.27;4.85;;;18.30;99.90;;;;;;4263625;27;20046;-63
2022/08/29 03:34:21;;;;;;;9.93;5.05;;;18.30;99.90;;;;;;4264960;27;20079;-63
2022/08/29 03:36:23;;;;;;;6.60;4.68;;;18.30;99.90;;;;;;4263545;27;20087;-63
2022/08/29 03:38:25;;;;;;;9.02;4.88;;;18.30;99.90;;;;;;4264829;27;20424;-63
2022/08/29 03:40:26;;;;;;;8.73;4.15;;;18.30;99.90;;;;;;4263727;27;20030;-62
2022/08/29 03:42:28;;;;;;;9.73;4.95;;;18.30;99.90;;;;;;4265009;27;20039;-62
2022/08/29 03:44:35;;;;;;;7.30;5.22;;;18.30;99.90;;;;;;4263790;27;20450;-63
2022/08/29 03:46:38;;;;;;;8.13;4.53;;;18.30;99.90;;;;;;4264867;27;20482;-62
2022/08/29 03:48:39;;;;;;;10.07;5.05;;;18.20;99.90;;;;;;4263645;27;20018;-61
2022/08/29 03:50:41;;;;;;;10.80;4.63;;;18.20;99.90;;;;;;4264281;27;20039;-62
2022/08/29 03:52:43;;;;;;;11.50;5.38;;;18.20;99.90;;;;;;4263890;27;20043;-62
2022/08/29 03:54:44;;;;;;;10.63;4.80;;;18.20;99.90;;;;;;4263987;27;20102;-61
2022/08/29 03:56:46;;;;;;;8.38;4.85;;;18.20;99.90;;;;;;4264110;27;20035;-62
2022/08/29 03:58:47;;;;;;;9.73;4.90;;;18.20;99.90;;;;;;4263731;27;20486;-62
2022/08/29 04:00:48;;;;;;;10.02;5.18;;;18.30;99.90;;;;;;4264339;27;20019;-63
2022/08/29 04:02:52;;;;;;;11.77;4.65;;;18.40;99.90;;;;;;4263316;27;20469;-62
2022/08/29 04:05:05;;;;;;;8.48;5.60;;;18.50;99.90;;;;;;4264116;27;20095;-62
2022/08/29 04:07:07;;;;;;;7.60;4.43;;;18.70;99.90;;;;;;4263314;27;20023;-62
2022/08/29 04:09:08;;;;;;;8.82;4.15;;;18.80;99.90;;;;;;4263981;27;20079;-62
2022/08/29 04:11:11;;;;;;;12.82;5.72;;;18.90;99.90;;;;;;4263258;27;20551;-61
2022/08/29 04:13:12;;;;;;;12.45;4.72;;;19.10;99.90;;;;;;4264084;27;20063;-62
2022/08/29 04:15:14;;;;;;;9.32;5.07;;;19.10;99.90;;;;;;4262639;27;20042;-61
2022/08/29 04:17:15;;;;;;;8.38;4.57;;;19.30;99.90;;;;;;4264107;27;20019;-61
2022/08/29 04:19:18;;;;;;;9.85;4.75;;;19.40;99.90;;;;;;4263135;27;20071;-62
2022/08/29 04:21:19;;;;;;;13.05;5.47;;;19.60;99.90;;;;;;4263940;27;20052;-62
2022/08/29 04:23:21;;;;;;;10.85;4.53;;;19.80;99.90;;;;;;4262766;27;20043;-62
2022/08/29 04:25:23;;;;;;;11.25;5.07;;;20.00;99.90;;;;;;4264123;27;20080;-62
2022/08/29 04:27:25;;;;;;;10.50;4.20;;;20.20;99.90;;;;;;4262811;27;20027;-62
2022/08/29 04:29:26;;;;;;;9.63;6.45;;;20.30;99.90;;;;;;4263679;27;20026;-62
2022/08/29 04:31:27;;;;;;;12.23;4.82;;;20.40;99.90;;;;;;4263216;27;20043;-63
2022/08/29 04:33:28;;;;;;;9.75;5.65;;;20.50;99.90;;;;;;4263038;27;20038;-62
2022/08/29 04:35:29;;;;;;;9.85;4.75;;;20.60;99.90;;;;;;4263375;27;20407;-62
2022/08/29 04:37:31;;;;;;;12.73;6.20;;;20.90;99.90;;;;;;4262769;27;20067;-63
2022/08/29 04:39:33;;;;;;;8.13;4.90;;;21.30;99.90;;;;;;4263878;27;20530;-63
2022/08/29 04:41:35;;;;;;;7.57;4.40;;;21.60;99.90;;;;;;4261002;27;20031;-63
2022/08/29 04:43:36;;;;;;;7.65;4.80;;;21.90;99.90;;;;;;4263692;27;20083;-63
2022/08/29 04:45:40;;;;;;;8.32;4.32;;;22.20;99.90;;;;;;4262308;27;20042;-63
2022/08/29 04:47:42;;;;;;;8.80;4.80;;;22.40;99.90;;;;;;4263502;27;20084;-63
2022/08/29 04:49:43;;;;;;;12.00;4.45;;;22.60;99.90;;;;;;4262361;27;20034;-63
2022/08/29 04:51:44;;;;;;;11.90;4.72;;;22.90;99.90;;;;;;4262389;27;20034;-63
2022/08/29 04:53:46;;;;;;;17.63;5.28;;;23.00;99.90;;;;;;4262205;27;20079;-63
2022/08/29 04:56:03;;;;;;;13.73;5.32;;;23.10;99.90;;;;;;4263531;27;20046;-64
2022/08/29 04:58:05;;;;;;;9.75;5.82;;;23.50;99.90;;;;;;4261852;27;20047;-63
2022/08/29 05:00:11;;;;;;;11.88;5.05;;;23.80;99.90;;;;;;4263045;27;20479;-62
2022/08/29 05:02:13;;;;;;;11.73;5.78;;;24.00;99.90;;;;;;4262308;27;20023;-63
2022/08/29 05:04:14;;;;;;;9.80;4.65;;;24.30;99.90;;;;;;4260843;27;20075;-64
2022/08/29 05:06:17;;;;;;;9.93;5.03;;;24.40;99.90;;;;;;4243966;27;20034;-63
2022/08/29 05:08:19;;;;;;;10.60;4.30;;;24.60;99.90;;;;;;4257248;27;20051;-63
2022/08/29 05:10:21;;;;;;;12.40;3.95;;;24.80;99.90;;;;;;4255751;27;20019;-64
2022/08/29 05:12:22;;;;;;;10.70;4.40;;;25.00;99.90;;;;;;4242865;27;20027;-63
2022/08/29 05:14:23;;;;;;;10.35;4.55;;;25.00;99.90;;;;;;4248625;27;20389;-64
2022/08/29 05:16:25;;;;;;;9.38;4.20;;;25.20;99.90;;;;;;4250842;27;20031;-62
2022/08/29 05:18:26;;;;;;;9.45;4.35;;;25.40;99.90;;;;;;4245629;27;20119;-62
2022/08/29 05:20:27;;;;;;;9.68;5.00;;;25.60;99.70;;;;;;4258311;27;20178;-61
2022/08/29 05:22:28;;;;;;;11.55;4.85;;;25.90;99.20;;;;;;4262312;27;20068;-62
2022/08/29 05:24:30;;;;;;;10.20;4.40;;;26.10;98.80;;;;;;4259026;27;20085;-61
2022/08/29 05:26:36;;;;;;;12.85;4.32;;;26.40;98.40;;;;;;4245727;27;20443;-61
2022/08/29 05:28:37;;;;;;;10.07;4.20;;;26.40;98.30;;;;;;4249244;27;20030;-62
2022/08/29 05:30:39;;;;;;;8.48;3.90;;;26.30;97.90;;;;;;4259519;27;20058;-62
2022/08/29 05:32:41;;;;;;;8.30;4.20;;;26.20;97.80;;;;;;4261106;27;20044;-62
2022/08/29 05:34:42;;;;;;;4.53;3.83;;;26.10;97.80;;;;;;4255918;27;20490;-62
2022/08/29 05:36:44;;;;;;;8.93;4.13;;;26.40;97.50;;;;;;4259778;27;20080;-62
2022/08/29 05:38:45;;;;;;;14.13;5.03;;;27.00;97.20;;;;;;4251381;27;20047;-62
2022/08/29 05:40:46;;;;;;;13.50;5.72;;;26.70;96.50;;;;;;4261665;27;20068;-62
2022/08/29 05:42:47;;;;;;;11.05;5.03;;;26.30;96.70;;;;;;4250437;27;20495;-62
2022/08/29 05:44:49;;;;;;;18.90;5.45;;;26.50;96.70;;;;;;4244601;27;20035;-61
2022/08/29 05:46:50;;;;;;;11.02;5.03;;;26.60;96.30;;;;;;4244181;27;20043;-62
2022/08/29 05:48:51;;;;;;;16.88;5.45;;;26.50;96.40;;;;;;4244942;27;20526;-62
2022/08/29 05:50:53;;;;;;;17.23;5.35;;;26.70;96.20;;;;;;4244155;27;20376;-63
2022/08/29 05:52:54;;;;;;;21.63;6.90;;;26.60;95.90;;;;;;4245423;27;20478;-63
2022/08/29 05:54:55;;;;;;;10.13;5.85;;;26.50;95.90;;;;;;4244192;27;20360;-63
2022/08/29 05:56:56;;;;;;;15.48;7.50;;;26.30;96.10;;;;;;4244667;27;20043;-63
2022/08/29 05:58:58;;;;;;;17.92;7.57;;;26.00;96.10;;;;;;4243942;27;20080;-63
2022/08/29 06:00:59;;;;;;;28.70;9.50;;;25.90;96.30;;;;;;4245365;27;20130;-63
2022/08/29 06:03:00;;;;;;;26.02;8.45;;;25.50;96.70;;;;;;4247764;27;20090;-63
2022/08/29 06:05:03;;;;;;;27.23;7.78;;;25.70;96.90;;;;;;4255078;27;20084;-64
2022/08/29 06:07:05;;;;;;;16.42;6.88;;;26.20;96.70;;;;;;4243675;27;20039;-62
2022/08/29 06:09:07;;;;;;;20.52;7.63;;;26.40;96.00;;;;;;4243071;27;20499;-64
2022/08/29 06:11:14;;;;;;;25.13;7.88;;;26.20;96.00;;;;;;4244240;27;20023;-63
2022/08/29 06:13:15;;;;;;;17.33;6.75;;;26.20;96.10;;;;;;4244721;27;20077;-63
2022/08/29 06:15:16;;;;;;;24.00;7.68;;;26.10;96.10;;;;;;4244393;27;20027;-64
2022/08/29 06:17:18;;;;;;;16.60;7.20;;;26.10;96.10;;;;;;4245413;27;20023;-62
2022/08/29 06:19:19;;;;;;;15.77;6.47;;;26.10;96.30;;;;;;4253465;27;20047;-61
2022/08/29 06:21:21;;;;;;;18.90;8.30;;;26.20;96.00;;;;;;4252215;27;20431;-65
2022/08/29 06:23:22;;;;;;;19.92;5.25;;;26.20;95.90;;;;;;4245200;27;20031;-69
2022/08/29 06:25:23;;;;;;;12.40;5.13;;;26.50;95.60;;;;;;4244459;27;20027;-63
2022/08/29 06:27:24;;;;;;;15.57;5.03;;;27.10;95.10;;;;;;4244883;27;20474;-63
2022/08/29 06:29:26;;;;;;;20.45;7.13;;;27.30;94.80;;;;;;4243663;27;20072;-62
2022/08/29 06:31:28;;;;;;;16.35;7.10;;;27.50;94.70;;;;;;4245270;27;20038;-63
2022/08/29 06:33:29;;;;;;;17.05;5.60;;;27.70;94.50;;;;;;4243936;27;20035;-63
2022/08/29 06:35:30;;;;;;;11.88;4.30;;;27.90;94.10;;;;;;4246275;27;20016;-62
2022/08/29 06:37:31;;;;;;;14.73;4.32;;;27.60;93.80;;;;;;4261164;27;20043;-61
2022/08/29 06:39:33;;;;;;;10.82;4.72;;;27.60;93.90;;;;;;4261805;27;20475;-65
2022/08/29 06:41:36;;;;;;;7.85;4.13;;;27.90;93.60;;;;;;4260832;27;20031;-65
2022/08/29 06:43:39;;;;;;;6.03;4.20;;;28.40;93.20;;;;;;4261530;27;20083;-65
2022/08/29 06:45:43;;;;;;;7.60;4.65;;;28.80;92.70;;;;;;4260635;27;20042;-65
2022/08/29 06:47:46;;;;;;;8.27;4.60;;;29.10;92.30;;;;;;4261763;27;20459;-66
2022/08/29 06:49:47;;;;;;;11.88;4.40;;;29.00;92.10;;;;;;4260660;27;20022;-65
2022/08/29 06:51:51;;;;;;;9.27;4.38;;;29.30;92.00;;;;;;4260515;27;20035;-66
2022/08/29 06:53:52;;;;;;;17.48;4.22;;;29.80;91.40;;;;;;4261542;27;20052;-65
2022/08/29 06:55:54;;;;;;;10.02;4.13;;;29.60;91.00;;;;;;4260768;27;20497;-66
2022/08/29 06:57:55;;;;;;;5.80;4.20;;;29.30;91.20;;;;;;4261983;27;20058;-66
2022/08/29 06:59:56;;;;;;;7.70;3.45;;;29.70;91.20;;;;;;4260859;27;20056;-66
2022/08/29 07:01:57;;;;;;;8.18;4.30;;;29.80;90.90;;;;;;4261495;27;20483;-66
2022/08/29 07:03:59;;;;;;;5.07;3.85;;;29.90;90.50;;;;;;4260033;27;20099;-68
2022/08/29 07:06:00;;;;;;;8.75;4.00;;;29.80;90.50;;;;;;4262399;27;20026;-62
2022/08/29 07:08:03;;;;;;;9.45;4.35;;;29.80;90.30;;;;;;4260583;27;20124;-62
2022/08/29 07:10:05;;;;;;;10.25;4.30;;;29.50;90.30;;;;;;4261746;27;20035;-65
2022/08/29 07:12:06;;;;;;;19.30;9.43;;;29.30;90.50;;;;;;4260445;27;20079;-65
2022/08/29 07:14:07;;;;;;;20.80;9.13;;;29.10;90.70;;;;;;4261682;27;20083;-62
2022/08/29 07:16:15;;;;;;;8.63;5.53;;;29.20;90.70;;;;;;4260347;27;20084;-65
2022/08/29 07:18:16;;;;;;;18.45;9.52;;;29.20;90.60;;;;;;4261236;27;20027;-63
2022/08/29 07:20:18;;;;;;;33.55;15.55;;;29.10;90.50;;;;;;4259409;27;20051;-65
2022/08/29 07:22:19;;;;;;;9.80;3.97;;;29.10;90.60;;;;;;4261535;27;20123;-63
2022/08/29 07:24:20;;;;;;;10.07;3.90;;;29.30;90.60;;;;;;4261492;27;20030;-63
2022/08/29 07:26:28;;;;;;;12.25;4.32;;;29.70;90.20;;;;;;4260676;27;20056;-64
2022/08/29 07:28:33;;;;;;;18.10;5.47;;;29.30;89.90;;;;;;4261230;27;20083;-64
2022/08/29 07:30:34;;;;;;;17.75;5.35;;;28.70;90.40;;;;;;4260540;27;20637;-65
2022/08/29 07:32:35;;;;;;;26.02;5.97;;;28.50;90.80;;;;;;4261101;27;20039;-62
2022/08/29 07:34:37;;;;;;;22.58;9.35;;;28.30;90.80;;;;;;4259746;27;20080;-59
2022/08/29 07:36:38;;;;;;;15.82;5.55;;;28.60;90.80;;;;;;4261199;27;20063;-64
2022/08/29 07:38:40;;;;;;;12.75;4.68;;;28.80;90.70;;;;;;4260704;27;20042;-64
2022/08/29 07:40:41;;;;;;;14.10;4.53;;;28.80;90.60;;;;;;4260903;27;20071;-62
2022/08/29 07:42:43;;;;;;;16.90;5.60;;;28.80;90.60;;;;;;4259817;27;20492;-62
2022/08/29 07:44:44;;;;;;;23.60;6.72;;;28.70;90.50;;;;;;4263911;27;20023;-59
2022/08/29 07:46:45;;;;;;;16.35;5.47;;;28.90;90.60;;;;;;4262339;27;20478;-63
2022/08/29 07:48:48;;;;;;;21.02;5.75;;;29.10;90.50;;;;;;4264504;27;20080;-61
2022/08/29 07:50:49;;;;;;;17.45;5.97;;;28.80;90.40;;;;;;4263301;27;20035;-63
2022/08/29 07:52:51;;;;;;;20.83;5.28;;;28.60;90.50;;;;;;4264236;27;20388;-61
2022/08/29 07:54:52;;;;;;;14.13;4.72;;;28.50;90.50;;;;;;4263108;27;20078;-61
2022/08/29 07:56:53;;;;;;;14.98;5.82;;;28.60;90.60;;;;;;4263908;27;20177;-60
2022/08/29 07:58:56;;;;;;;19.42;5.75;;;28.50;90.50;;;;;;4263672;27;20039;-64
2022/08/29 08:00:57;;;;;;;15.88;6.20;;;28.10;90.70;;;;;;4262029;27;20064;-62
2022/08/29 08:02:59;;;;;;;15.18;5.85;;;27.90;91.10;;;;;;4264212;27;20027;-62
2022/08/29 08:05:00;;;;;;;20.95;5.10;;;28.00;91.20;;;;;;4263408;27;20030;-62
2022/08/29 08:07:01;;;;;;;13.23;4.65;;;28.10;91.10;;;;;;4264704;27;20143;-63
2022/08/29 08:09:04;;;;;;;25.17;5.80;;;28.30;91.00;;;;;;4262816;27;20055;-60
2022/08/29 08:11:07;;;;;;;14.10;4.63;;;28.10;91.10;;;;;;4263952;27;20460;-60
2022/08/29 08:13:09;;;;;;;13.07;4.50;;;28.40;91.10;;;;;;4262827;27;20431;-61
2022/08/29 08:15:10;;;;;;;15.85;5.32;;;28.50;91.00;;;;;;4264142;27;20034;-61
2022/08/29 08:17:11;;;;;;;13.75;4.50;;;28.40;91.00;;;;;;4262862;27;20027;-61
2022/08/29 08:19:13;;;;;;;15.88;5.22;;;28.50;91.10;;;;;;4263686;27;20034;-62
2022/08/29 08:21:15;;;;;;;16.80;4.93;;;28.60;91.00;;;;;;4262422;27;20023;-62
2022/08/29 08:23:17;;;;;;;12.80;4.38;;;28.70;91.00;;;;;;4263451;27;20060;-63
2022/08/29 08:25:18;;;;;;;13.05;4.82;;;28.90;90.90;;;;;;4262568;27;20419;-62
2022/08/29 08:27:20;;;;;;;14.18;4.53;;;29.10;90.70;;;;;;4263453;27;20079;-63
2022/08/29 08:29:21;;;;;;;11.38;5.35;;;29.00;90.60;;;;;;4262922;27;20439;-62
2022/08/29 08:31:22;;;;;;;12.45;5.30;;;29.10;90.50;;;;;;4259403;27;20075;-62
2022/08/29 08:33:24;;;;;;;17.33;4.63;;;29.00;90.40;;;;;;4246375;27;20511;-63
2022/08/29 08:35:25;;;;;;;13.77;4.88;;;29.00;90.30;;;;;;4245448;27;20459;-62
2022/08/29 08:37:26;;;;;;;8.20;4.28;;;29.00;90.50;;;;;;4247049;27;20023;-63
2022/08/29 08:39:28;;;;;;;13.00;4.43;;;29.00;90.40;;;;;;4245375;27;20084;-63
2022/08/29 08:41:48;;;;;;;8.43;4.32;;;29.00;90.40;;;;;;4246618;27;20103;-63
2022/08/29 08:43:52;;;;;;;11.55;4.35;;;29.10;90.30;;;;;;4245443;27;20031;-62
2022/08/29 08:45:55;;;;;;;7.68;4.75;;;29.20;90.30;;;;;;4246126;27;20047;-63
2022/08/29 08:48:17;;;;;;;7.45;4.05;;;29.30;90.10;;;;;;4245213;27;20031;-63
2022/08/29 08:50:24;;;;;;;8.85;4.82;;;29.40;90.00;;;;;;4254865;27;20099;-62
2022/08/29 08:52:57;;;;;;;10.68;4.18;;;29.40;90.20;;;;;;4262060;27;20039;-61
2022/08/29 08:55:03;;;;;;;8.20;4.38;;;29.20;90.50;;;;;;4263004;27;20483;-62
2022/08/29 08:57:10;;;;;;;14.20;4.78;;;29.20;90.60;;;;;;4262173;27;20031;-64
2022/08/29 08:59:23;;;;;;;9.65;4.85;;;29.10;90.60;;;;;;4260019;27;20054;-62
2022/08/29 09:01:36;;;;;;;8.50;4.43;;;29.10;91.00;;;;;;4262621;27;20487;-62
2022/08/29 09:03:52;;;;;;;9.77;5.03;;;29.00;91.60;;;;;;4262993;27;20118;-61
2022/08/29 09:06:25;;;;;;;9.85;4.82;;;28.90;92.10;;;;;;4262748;27;20034;-62
2022/08/29 09:08:42;;;;;;;6.78;4.68;;;28.80;92.50;;;;;;4253912;27;20435;-62
2022/08/29 09:10:46;;;;;;;10.13;4.45;;;28.90;92.80;;;;;;4263155;27;20487;-61
2022/08/29 09:12:59;;;;;;;12.95;5.22;;;28.70;92.90;;;;;;4261703;27;20063;-58
2022/08/29 09:15:08;;;;;;;12.27;5.03;;;28.50;93.20;;;;;;4263107;27;20083;-62
2022/08/29 09:17:20;;;;;;;13.77;5.10;;;28.40;93.50;;;;;;4262216;27;20023;-62
2022/08/29 09:19:23;;;;;;;6.70;5.07;;;28.00;94.60;;;;;;4263223;27;20035;-66
2022/08/29 09:21:25;;;;;;;13.18;5.57;;;27.60;95.00;;;;;;4262145;27;20042;-61
2022/08/29 09:23:41;;;;;;;12.98;5.97;;;27.40;95.40;;;;;;4261687;27;20064;-61
2022/08/29 09:25:42;;;;;;;11.02;6.80;;;27.40;97.50;;;;;;4244961;27;20039;-62
2022/08/29 09:27:44;;;;;;;10.18;5.38;;;27.10;97.00;;;;;;4245429;27;20031;-63
2022/08/29 09:29:48;;;;;;;10.40;5.97;;;27.10;97.30;;;;;;4245064;27;20107;-61
2022/08/29 09:32:13;;;;;;;13.77;6.07;;;27.30;97.40;;;;;;4245318;27;20436;-61
2022/08/29 09:34:33;;;;;;;7.57;5.78;;;27.40;97.90;;;;;;4245311;27;20112;-61
2022/08/29 09:36:39;;;;;;;;;;;27.40;98.00;;;;;;4246203;27;20031;-61
2022/08/29 09:38:40;;;;;;;15.00;6.90;;;27.50;97.70;;;;;;4244721;27;19949;-60
2022/08/29 09:40:58;;;;;;;7.85;5.03;;;27.50;96.80;;;;;;4245792;27;20084;-61
2022/08/29 09:43:01;;;;;;;15.82;5.93;;;27.60;96.90;;;;;;4244556;27;20139;-61
2022/08/29 09:45:26;;;;;;;12.60;5.60;;;27.60;96.80;;;;;;4254936;27;20428;-63
2022/08/29 09:47:30;;;;;;;8.98;5.63;;;27.60;97.10;;;;;;4261803;27;20051;-64
2022/08/29 09:49:33;;;;;;;11.35;5.78;;;27.50;96.90;;;;;;4262210;27;20031;-60
2022/08/29 09:51:38;;;;;;;8.88;6.07;;;27.50;97.10;;;;;;4259394;27;20026;-60
2022/08/29 09:53:40;;;;;;;7.60;5.68;;;27.50;97.20;;;;;;4244748;27;20031;-60
2022/08/29 09:55:44;;;;;;;9.27;5.90;;;27.50;97.30;;;;;;4243599;27;20136;-60
2022/08/29 09:57:51;;;;;;;13.20;6.45;;;27.40;97.30;;;;;;4255149;27;20094;-61
2022/08/29 10:00:12;;;;;;;10.98;6.15;;;27.40;97.30;;;;;;4258603;27;20107;-62
2022/08/29 10:02:43;;;;;;;7.55;5.90;;;27.30;97.50;;;;;;4244190;27;20023;-62
2022/08/29 10:04:52;;;;;;;12.68;5.57;;;27.20;97.40;;;;;;4243882;27;20091;-62
2022/08/29 10:07:11;;;;;;;11.27;6.43;;;27.20;97.40;;;;;;4244630;27;20039;-62
2022/08/29 10:09:27;;;;;;;9.27;5.85;;;27.10;97.40;;;;;;4243379;27;20576;-61
2022/08/29 10:11:41;;;;;;;10.38;5.88;;;27.00;97.90;;;;;;4244988;27;20039;-61
2022/08/29 10:13:49;;;;;;;15.35;5.95;;;27.00;97.70;;;;;;4243345;27;20515;-62
2022/08/29 10:16:22;;;;;;;12.90;5.82;;;27.00;97.80;;;;;;4244784;27;20416;-62
2022/08/29 10:18:36;;;;;;;13.40;6.18;;;27.00;98.60;;;;;;4244108;27;20502;-63
2022/08/29 10:20:51;;;;;;;13.35;6.47;;;26.80;98.40;;;;;;4245354;27;20050;-63
2022/08/29 10:23:10;;;;;;;15.27;6.57;;;26.80;98.30;;;;;;4255845;27;20030;-62
2022/08/29 10:25:38;;;;;;;11.32;6.55;;;26.70;98.40;;;;;;4261042;27;20517;-63
2022/08/29 10:28:04;;;;;;;9.50;6.85;;;26.50;99.00;;;;;;4258808;27;20034;-62
2022/08/29 10:30:19;;;;;;;12.18;7.07;;;26.10;99.90;;;;;;4261417;27;20011;-64
2022/08/29 10:32:54;;;;;;;11.45;7.00;;;25.80;99.90;;;;;;4261189;27;20048;-62
2022/08/29 10:35:18;;;;;;;13.02;7.93;;;25.60;99.90;;;;;;4260764;27;20466;-63
2022/08/29 10:37:57;;;;;;;12.40;7.22;;;25.30;99.90;;;;;;4262459;27;20079;-61
2022/08/29 10:40:09;;;;;;;10.75;6.70;;;25.10;99.90;;;;;;4245987;27;20404;-60
2022/08/29 10:42:14;;;;;;;10.35;7.25;;;25.00;99.90;;;;;;4261743;27;20031;-61
2022/08/29 10:44:25;;;;;;;9.50;7.20;;;24.90;99.90;;;;;;4260487;27;20087;-62